createdAt,value
2022-08-14T00:02:01.241Z,22.75
2022-08-14T00:04:41.820Z,22.72
2022-08-14T00:07:10.866Z,22.31
2022-08-14T00:09:55.255Z,22.61
2022-08-14T00:12:33.615Z,22.48
2022-08-14T00:15:16.393Z,21.95
2022-08-14T00:17:47.241Z,21.98
2022-08-14T00:20:23.461Z,22.15
2022-08-14T00:22:57.059Z,22.21
2022-08-14T00:25:30.569Z,22.35
2022-08-14T00:28:10.659Z,22.13
2022-08-14T00:30:43.078Z,22.15
2022-08-14T00:33:16.072Z,22.09
2022-08-14T00:36:39.508Z,22.36
2022-08-14T00:38:35.174Z,22.17
2022-08-14T00:41:04.955Z,21.90
2022-08-14T00:43:32.731Z,21.89
2022-08-14T00:46:08.159Z,22.06
2022-08-14T00:48:51.112Z,22.05
2022-08-14T00:51:21.905Z,21.99
2022-08-14T00:53:50.397Z,22.00
2022-08-14T00:56:21.480Z,21.77
2022-08-14T00:58:49.280Z,21.90
2022-08-14T01:01:19.292Z,21.89
2022-08-14T01:03:52.841Z,22.01
2022-08-14T01:06:21.361Z,22.09
2022-08-14T01:08:52.024Z,21.91
2022-08-14T01:11:35.480Z,21.80
2022-08-14T01:14:04.990Z,21.79
2022-08-14T01:16:53.097Z,21.70
2022-08-14T01:19:41.286Z,21.70
2022-08-14T01:22:12.531Z,21.43
2022-08-14T01:24:43.409Z,21.38
2022-08-14T01:27:17.780Z,21.55
2022-08-14T01:30:03.180Z,21.46
2022-08-14T01:32:33.558Z,21.63
2022-08-14T01:35:18.855Z,21.35
2022-08-14T01:37:58.366Z,21.50
2022-08-14T01:40:36.401Z,21.56
2022-08-14T01:43:18.538Z,21.59
2022-08-14T01:45:57.590Z,21.59
2022-08-14T01:48:37.057Z,21.66
2022-08-14T01:51:06.154Z,21.56
2022-08-14T01:53:48.082Z,21.57
2022-08-14T01:56:30.411Z,21.43
2022-08-14T01:58:58.399Z,21.51
2022-08-14T02:01:30.984Z,21.49
2022-08-14T02:03:59.814Z,21.53
2022-08-14T02:06:33.174Z,21.32
2022-08-14T02:09:04.312Z,21.32
2022-08-14T02:11:46.719Z,21.37
2022-08-14T02:14:31.256Z,21.35
2022-08-14T02:16:59.395Z,21.39
2022-08-14T02:19:28.037Z,21.46
2022-08-14T02:22:03.006Z,21.39
2022-08-14T02:24:39.697Z,21.30
2022-08-14T02:28:21.906Z,21.37
2022-08-14T02:30:02.187Z,21.54
2022-08-14T02:32:36.393Z,21.56
2022-08-14T02:35:13.735Z,21.31
2022-08-14T02:37:45.731Z,21.41
2022-08-14T02:40:20.964Z,21.54
2022-08-14T02:43:00.766Z,21.37
2022-08-14T02:45:38.747Z,21.43
2022-08-14T02:49:02.063Z,21.51
2022-08-14T02:51:00.830Z,21.23
2022-08-14T02:53:31.269Z,21.38
2022-08-14T02:56:29.723Z,21.41
2022-08-14T02:58:55.783Z,21.15
2022-08-14T03:01:31.164Z,21.19
2022-08-14T03:04:15.175Z,21.27
2022-08-14T03:06:57.606Z,21.16
2022-08-14T03:09:42.164Z,21.00
2022-08-14T03:12:31.781Z,20.79
2022-08-14T03:15:03.175Z,20.97
2022-08-14T03:17:41.065Z,20.96
2022-08-14T03:20:19.186Z,21.04
2022-08-14T03:22:52.602Z,21.07
2022-08-14T03:25:22.533Z,21.00
2022-08-14T03:27:58.779Z,21.07
2022-08-14T03:30:39.084Z,21.13
2022-08-14T03:33:10.881Z,21.17
2022-08-14T03:36:05.708Z,20.92
2022-08-14T03:39:12.573Z,20.89
2022-08-14T03:41:32.987Z,20.98
2022-08-14T03:45:19.260Z,20.89
2022-08-14T03:46:54.697Z,20.88
2022-08-14T03:49:28.595Z,20.96
2022-08-14T03:51:58.367Z,21.04
2022-08-14T03:54:29.271Z,21.05
2022-08-14T03:57:02.774Z,21.01
2022-08-14T03:59:34.189Z,20.96
2022-08-14T04:02:04.834Z,20.93
2022-08-14T04:04:53.471Z,21.00
2022-08-14T04:07:20.834Z,20.83
2022-08-14T04:09:49.625Z,20.89
2022-08-14T04:12:26.367Z,20.60
2022-08-14T04:14:55.483Z,20.45
2022-08-14T04:17:23.808Z,20.35
2022-08-14T04:19:52.422Z,20.55
2022-08-14T04:22:22.530Z,20.83
2022-08-14T04:24:50.947Z,21.14
2022-08-14T04:27:18.444Z,21.25
2022-08-14T04:29:45.689Z,21.31
2022-08-14T04:33:10.489Z,21.35
2022-08-14T04:35:11.078Z,21.41
2022-08-14T04:37:57.613Z,21.53
2022-08-14T04:40:43.775Z,21.69
2022-08-14T04:43:38.977Z,21.74
2022-08-14T04:46:09.529Z,21.71
2022-08-14T04:48:43.494Z,22.06
2022-08-14T04:51:12.881Z,22.09
2022-08-14T04:53:43.719Z,22.07
2022-08-14T04:56:31.086Z,22.42
2022-08-14T04:59:10.230Z,22.59
2022-08-14T05:01:48.969Z,22.61
2022-08-14T05:04:21.072Z,22.77
2022-08-14T05:06:53.653Z,22.93
2022-08-14T05:09:23.953Z,22.81
2022-08-14T05:11:53.163Z,22.80
2022-08-14T05:14:45.720Z,22.91
2022-08-14T05:17:11.498Z,23.05
2022-08-14T05:19:45.072Z,23.22
2022-08-14T05:22:28.696Z,23.31
2022-08-14T05:24:56.135Z,23.55
2022-08-14T05:27:25.544Z,23.76
2022-08-14T05:30:00.535Z,23.55
2022-08-14T05:32:28.657Z,23.66
2022-08-14T05:35:00.368Z,24.08
2022-08-14T05:37:30.984Z,24.12
2022-08-14T05:40:02.191Z,24.40
2022-08-14T05:42:34.250Z,24.61
2022-08-14T05:45:04.448Z,24.71
2022-08-14T05:47:34.139Z,24.63
2022-08-14T05:50:17.556Z,24.93
2022-08-14T05:52:48.486Z,25.08
2022-08-14T05:55:21.784Z,25.02
2022-08-14T05:57:54.510Z,24.86
2022-08-14T06:00:29.983Z,24.99
2022-08-14T06:03:07.022Z,24.65
2022-08-14T06:05:38.875Z,24.89
2022-08-14T06:08:35.856Z,25.13
2022-08-14T06:11:06.290Z,25.41
2022-08-14T06:13:45.231Z,25.41
2022-08-14T06:16:18.916Z,25.73
2022-08-14T06:18:52.760Z,25.77
2022-08-14T06:21:22.145Z,25.98
2022-08-14T06:23:59.555Z,26.30
2022-08-14T06:26:30.230Z,26.59
2022-08-14T06:29:03.468Z,26.53
2022-08-14T06:31:32.046Z,26.76
2022-08-14T06:35:11.362Z,26.77
2022-08-14T06:36:48.705Z,26.84
2022-08-14T06:39:18.530Z,26.74
2022-08-14T06:42:05.955Z,26.84
2022-08-14T06:44:43.142Z,26.63
2022-08-14T06:47:12.785Z,27.04
2022-08-14T06:49:54.576Z,27.09
2022-08-14T06:52:29.697Z,27.34
2022-08-14T06:57:41.317Z,27.34
2022-08-14T07:00:18.205Z,27.54
2022-08-14T07:03:13.326Z,27.59
2022-08-14T07:05:55.678Z,27.34
2022-08-14T07:08:31.518Z,27.69
2022-08-14T07:13:48.778Z,27.48
2022-08-14T07:18:55.274Z,27.66
2022-08-14T07:21:24.370Z,27.47
2022-08-14T07:23:52.633Z,27.74
2022-08-14T07:26:22.359Z,27.93
2022-08-14T07:28:52.013Z,27.84
2022-08-14T07:31:19.787Z,27.69
2022-08-14T07:33:54.896Z,28.00
2022-08-14T07:36:27.786Z,28.08
2022-08-14T07:39:12.440Z,28.67
2022-08-14T07:41:44.549Z,28.81
2022-08-14T07:44:32.366Z,28.83
2022-08-14T07:47:05.492Z,28.71
2022-08-14T07:49:38.373Z,28.79
2022-08-14T07:52:15.355Z,28.52
2022-08-14T07:54:56.312Z,28.61
2022-08-14T07:57:28.671Z,29.30
2022-08-14T07:59:59.326Z,29.29
2022-08-14T08:02:44.925Z,29.34
2022-08-14T08:05:22.340Z,29.36
2022-08-14T08:07:53.396Z,29.82
2022-08-14T08:11:01.990Z,30.03
2022-08-14T08:13:29.321Z,30.11
2022-08-14T08:16:05.221Z,30.05
2022-08-14T08:18:36.756Z,30.28
2022-08-14T08:21:11.519Z,30.40
2022-08-14T08:23:51.104Z,30.20
2022-08-14T08:26:22.369Z,30.31
2022-08-14T08:28:57.992Z,30.21
2022-08-14T08:31:37.381Z,30.83
2022-08-14T08:36:48.505Z,30.76
2022-08-14T08:39:22.325Z,30.53
2022-08-14T08:41:53.502Z,30.09
2022-08-14T08:44:34.487Z,30.68
2022-08-14T08:47:08.550Z,30.94
2022-08-14T08:49:48.678Z,31.11
2022-08-14T08:52:33.149Z,30.47
2022-08-14T08:55:04.609Z,30.31
2022-08-14T09:00:25.698Z,30.96
2022-08-14T09:02:59.333Z,31.18
2022-08-14T09:05:29.475Z,31.63
2022-08-14T09:08:30.599Z,31.30
2022-08-14T09:11:21.015Z,31.59
2022-08-14T09:13:51.716Z,31.52
2022-08-14T09:16:26.421Z,31.59
2022-08-14T09:18:56.755Z,31.99
2022-08-14T09:21:36.579Z,32.30
2022-08-14T09:26:44.049Z,31.89
2022-08-14T09:29:31.712Z,32.09
2022-08-14T09:32:04.498Z,32.19
2022-08-14T09:35:10.606Z,32.19
2022-08-14T09:37:49.988Z,32.58
2022-08-14T09:40:34.400Z,32.13
2022-08-14T09:43:07.202Z,31.65
2022-08-14T09:45:53.428Z,32.03
2022-08-14T09:48:32.617Z,32.26
2022-08-14T09:54:18.102Z,32.17
2022-08-14T09:56:46.548Z,32.31
2022-08-14T09:59:33.697Z,32.58
2022-08-14T10:02:22.256Z,32.20
2022-08-14T10:05:21.778Z,32.47
2022-08-14T10:07:53.827Z,32.17
2022-08-14T10:10:41.622Z,32.41
2022-08-14T10:13:23.745Z,32.63
2022-08-14T10:15:51.937Z,33.18
2022-08-14T10:18:21.553Z,33.54
2022-08-14T10:20:55.400Z,33.06
2022-08-14T10:23:25.018Z,32.83
2022-08-14T10:26:00.349Z,33.31
2022-08-14T10:29:18.071Z,33.24
2022-08-14T10:31:45.446Z,34.15
2022-08-14T10:34:19.650Z,34.09
2022-08-14T10:37:02.535Z,33.98
2022-08-14T10:39:30.618Z,34.65
2022-08-14T10:42:18.318Z,34.45
2022-08-14T10:44:52.368Z,34.54
2022-08-14T10:48:07.732Z,34.50
2022-08-14T10:50:33.133Z,34.07
2022-08-14T10:53:07.851Z,34.57
2022-08-14T10:55:45.552Z,34.61
2022-08-14T10:58:17.480Z,34.18
2022-08-14T11:00:57.112Z,34.83
2022-08-14T11:03:56.071Z,34.32
2022-08-14T11:09:16.973Z,34.50
2022-08-14T11:12:40.168Z,35.39
2022-08-14T11:14:59.162Z,34.89
2022-08-14T11:17:36.278Z,34.94
2022-08-14T11:20:13.763Z,35.03
2022-08-14T11:22:52.674Z,34.88
2022-08-14T11:25:43.949Z,34.61
2022-08-14T11:28:21.577Z,34.51
2022-08-14T11:34:01.601Z,34.69
2022-08-14T11:37:03.806Z,34.52
2022-08-14T11:39:34.441Z,34.81
2022-08-14T11:42:58.832Z,34.98
2022-08-14T11:45:17.098Z,35.29
2022-08-14T11:48:12.668Z,35.10
2022-08-14T11:50:38.523Z,35.17
2022-08-14T11:53:08.522Z,35.08
2022-08-14T11:55:39.413Z,35.19
2022-08-14T11:58:15.561Z,35.81
2022-08-14T12:00:53.954Z,35.84
2022-08-14T12:03:46.042Z,36.08
2022-08-14T12:06:35.943Z,35.75
2022-08-14T12:11:51.612Z,35.83
2022-08-14T12:14:30.644Z,35.78
2022-08-14T12:17:12.015Z,35.78
2022-08-14T12:19:51.581Z,36.17
2022-08-14T12:27:53.536Z,35.68
2022-08-14T12:30:34.408Z,36.37
2022-08-14T12:33:12.663Z,36.75
2022-08-14T12:35:56.249Z,36.24
2022-08-14T12:38:33.757Z,35.90
2022-08-14T12:41:09.934Z,36.35
2022-08-14T12:46:27.411Z,35.89
2022-08-14T12:49:25.995Z,35.78
2022-08-14T12:52:02.382Z,36.00
2022-08-14T12:54:43.561Z,36.27
2022-08-14T12:57:42.275Z,36.12
2022-08-14T13:00:22.700Z,35.99
2022-08-14T13:03:01.699Z,35.72
2022-08-14T13:05:33.828Z,36.16
2022-08-14T13:08:05.893Z,36.58
2022-08-14T13:10:56.103Z,36.51
2022-08-14T13:13:38.419Z,37.04
2022-08-14T13:16:20.875Z,36.41
2022-08-14T13:19:02.236Z,36.63
2022-08-14T13:22:05.124Z,36.34
2022-08-14T13:24:28.419Z,35.99
2022-08-14T13:27:11.041Z,35.26
2022-08-14T13:29:53.014Z,35.60
2022-08-14T13:35:16.268Z,34.76
2022-08-14T13:37:45.283Z,34.82
2022-08-14T13:40:26.468Z,34.94
2022-08-14T13:42:57.705Z,34.78
2022-08-14T13:45:34.079Z,35.12
2022-08-14T13:48:27.705Z,35.40
2022-08-14T13:51:11.725Z,35.41
2022-08-14T13:56:36.643Z,35.21
2022-08-14T13:59:07.533Z,35.04
2022-08-14T14:01:42.830Z,34.09
2022-08-14T14:04:18.965Z,34.45
2022-08-14T14:06:53.735Z,34.63
2022-08-14T14:09:43.822Z,34.37
2022-08-14T14:12:37.968Z,34.12
2022-08-14T14:18:04.430Z,34.36
2022-08-14T14:20:54.910Z,34.90
2022-08-14T14:23:38.487Z,34.22
2022-08-14T14:26:20.026Z,33.72
2022-08-14T14:28:59.460Z,33.75
2022-08-14T14:31:36.649Z,34.08
2022-08-14T14:34:29.101Z,34.25
2022-08-14T14:37:04.551Z,34.13
2022-08-14T14:39:37.505Z,34.27
2022-08-14T14:42:13.573Z,34.48
2022-08-14T14:44:56.642Z,34.60
2022-08-14T14:47:27.660Z,34.87
2022-08-14T14:50:03.678Z,34.79
2022-08-14T14:52:36.980Z,34.87
2022-08-14T14:55:16.986Z,34.92
2022-08-14T14:57:56.357Z,34.85
2022-08-14T15:03:14.064Z,35.34
2022-08-14T15:05:53.458Z,35.03
2022-08-14T15:08:26.827Z,35.32
2022-08-14T15:11:13.555Z,35.06
2022-08-14T15:16:27.175Z,35.15
2022-08-14T15:18:59.478Z,35.06
2022-08-14T15:21:37.674Z,35.23
2022-08-14T15:24:09.972Z,34.94
2022-08-14T15:26:46.594Z,34.83
2022-08-14T15:34:48.837Z,34.20
2022-08-14T15:37:23.274Z,34.64
2022-08-14T15:39:55.553Z,34.78
2022-08-14T15:42:25.735Z,34.93
2022-08-14T15:45:02.407Z,35.06
2022-08-14T15:47:41.599Z,34.93
2022-08-14T15:50:17.501Z,33.97
2022-08-14T15:52:48.204Z,34.17
2022-08-14T15:55:25.912Z,34.19
2022-08-14T15:58:03.481Z,34.40
2022-08-14T16:00:53.631Z,34.34
2022-08-14T16:03:25.345Z,34.11
2022-08-14T16:08:50.108Z,34.25
2022-08-14T16:11:25.928Z,34.27
2022-08-14T16:14:06.571Z,33.89
2022-08-14T16:16:50.220Z,34.17
2022-08-14T16:19:27.488Z,34.13
2022-08-14T16:22:01.931Z,34.17
2022-08-14T16:25:02.530Z,33.77
2022-08-14T16:27:34.187Z,33.70
2022-08-14T16:30:20.592Z,33.31
2022-08-14T16:33:01.976Z,33.26
2022-08-14T16:38:44.679Z,33.54
2022-08-14T16:44:31.694Z,33.47
2022-08-14T16:47:09.695Z,32.99
2022-08-14T16:50:04.715Z,32.85
2022-08-14T16:52:44.456Z,32.83
2022-08-14T16:55:17.878Z,32.82
2022-08-14T16:57:50.022Z,32.83
2022-08-14T17:00:29.612Z,32.80
2022-08-14T17:03:08.587Z,32.53
2022-08-14T17:05:43.116Z,32.50
2022-08-14T17:08:41.614Z,32.45
2022-08-14T17:11:04.715Z,32.25
2022-08-14T17:14:00.706Z,32.36
2022-08-14T17:19:31.307Z,32.36
2022-08-14T17:22:14.025Z,32.19
2022-08-14T17:24:57.850Z,32.01
2022-08-14T17:27:31.878Z,32.23
2022-08-14T17:30:32.614Z,32.03
2022-08-14T17:33:05.210Z,32.04
2022-08-14T17:35:57.292Z,31.77
2022-08-14T17:44:11.541Z,31.53
2022-08-14T17:46:55.291Z,31.55
2022-08-14T17:49:37.417Z,31.55
2022-08-14T17:52:36.382Z,31.60
2022-08-14T17:55:12.500Z,31.40
2022-08-14T17:58:20.565Z,31.05
2022-08-14T18:01:05.696Z,31.06
2022-08-14T18:03:44.796Z,31.10
2022-08-14T18:06:40.177Z,30.95
2022-08-14T18:09:26.576Z,30.68
2022-08-14T18:11:58.637Z,30.41
2022-08-14T18:14:48.875Z,30.51
2022-08-14T18:17:23.811Z,30.55
2022-08-14T18:22:44.661Z,30.50
2022-08-14T18:25:26.379Z,30.41
2022-08-14T18:28:01.554Z,30.41
2022-08-14T18:30:58.884Z,30.44
2022-08-14T18:39:23.624Z,30.02
2022-08-14T18:46:07.532Z,29.49
2022-08-14T18:49:15.154Z,29.40
2022-08-14T18:52:19.007Z,29.14
2022-08-14T18:58:20.784Z,29.01
2022-08-14T19:01:02.210Z,28.96
2022-08-14T19:03:43.600Z,29.04
2022-08-14T19:06:19.490Z,29.04
2022-08-14T19:11:32.745Z,28.71
2022-08-14T19:14:06.602Z,28.73
2022-08-14T19:19:25.838Z,28.57
2022-08-14T19:22:01.553Z,28.34
2022-08-14T19:24:50.173Z,28.27
2022-08-14T19:33:08.728Z,28.19
2022-08-14T19:36:00.447Z,28.02
2022-08-14T19:38:47.749Z,27.92
2022-08-14T19:41:36.564Z,28.02
2022-08-14T19:52:26.787Z,27.70
2022-08-14T19:55:10.572Z,27.69
2022-08-14T19:57:57.906Z,27.71
2022-08-14T20:00:30.978Z,27.66
2022-08-14T20:03:14.228Z,27.60
2022-08-14T20:05:59.717Z,27.45
2022-08-14T20:09:05.321Z,27.34
2022-08-14T20:12:00.575Z,27.34
2022-08-14T20:14:29.939Z,27.06
2022-08-14T20:17:14.589Z,27.04
2022-08-14T20:19:51.942Z,27.19
2022-08-14T20:22:37.018Z,27.03
2022-08-14T20:25:23.218Z,27.09
2022-08-14T20:28:29.979Z,26.91
2022-08-14T20:34:19.080Z,26.58
2022-08-14T20:37:04.553Z,26.36
2022-08-14T20:39:40.096Z,26.47
2022-08-14T20:42:32.174Z,26.56
2022-08-14T20:45:24.821Z,26.57
2022-08-14T20:50:44.736Z,26.44
2022-08-14T20:53:27.606Z,26.42
2022-08-14T20:56:33.136Z,26.14
2022-08-14T20:59:24.573Z,26.26
2022-08-14T21:02:26.961Z,26.30
2022-08-14T21:04:59.203Z,26.15
2022-08-14T21:07:35.234Z,25.79
2022-08-14T21:10:36.296Z,26.01
2022-08-14T21:13:26.442Z,26.07
2022-08-14T21:15:56.620Z,25.94
2022-08-14T21:18:34.701Z,25.98
2022-08-14T21:21:09.999Z,25.83
2022-08-14T21:23:54.157Z,25.37
2022-08-14T21:26:51.163Z,25.50
2022-08-14T21:29:16.573Z,25.65
2022-08-14T21:31:55.992Z,25.60
2022-08-14T21:34:32.596Z,25.51
2022-08-14T21:37:08.813Z,25.54
2022-08-14T21:39:38.719Z,25.58
2022-08-14T21:42:06.848Z,25.48
2022-08-14T21:44:43.649Z,25.52
2022-08-14T21:47:16.098Z,25.52
2022-08-14T21:49:46.383Z,25.53
2022-08-14T21:52:50.560Z,25.54
2022-08-14T21:55:12.257Z,25.47
2022-08-14T21:58:38.371Z,25.38
2022-08-14T22:00:42.004Z,25.33
2022-08-14T22:03:17.233Z,25.45
2022-08-14T22:05:49.788Z,25.31
2022-08-14T22:08:19.512Z,25.31
2022-08-14T22:10:51.417Z,25.29
2022-08-14T22:13:21.235Z,25.24
2022-08-14T22:15:56.713Z,25.18
2022-08-14T22:18:32.215Z,25.20
2022-08-14T22:21:05.812Z,25.09
2022-08-14T22:23:35.724Z,25.02
2022-08-14T22:26:03.492Z,25.05
2022-08-14T22:28:33.410Z,25.13
2022-08-14T22:31:03.690Z,25.10
2022-08-14T22:33:38.731Z,25.10
2022-08-14T22:36:33.843Z,25.10
2022-08-14T22:39:02.055Z,24.87
2022-08-14T22:41:36.514Z,24.84
2022-08-14T22:44:12.563Z,24.92
2022-08-14T22:46:43.149Z,24.87
2022-08-14T22:49:16.559Z,24.89
2022-08-14T22:52:02.698Z,24.80
2022-08-14T22:54:53.830Z,24.89
2022-08-14T22:57:22.546Z,24.78
2022-08-14T22:59:50.282Z,24.75
2022-08-14T23:02:30.233Z,24.69
2022-08-14T23:04:59.074Z,24.71
2022-08-14T23:08:58.699Z,24.59
2022-08-14T23:10:31.715Z,24.53
2022-08-14T23:13:02.152Z,24.61
2022-08-14T23:15:30.665Z,24.53
2022-08-14T23:17:58.882Z,24.50
2022-08-14T23:20:29.332Z,24.50
2022-08-14T23:22:57.853Z,24.54
2022-08-14T23:25:57.178Z,24.45
2022-08-14T23:28:34.820Z,24.41
2022-08-14T23:31:08.491Z,24.42
2022-08-14T23:33:42.040Z,24.32
2022-08-14T23:36:31.410Z,24.31
2022-08-14T23:39:07.030Z,24.18
2022-08-14T23:41:46.944Z,24.32
2022-08-14T23:44:23.495Z,24.20
2022-08-14T23:47:03.365Z,24.19
2022-08-14T23:50:01.430Z,24.21
2022-08-14T23:52:50.781Z,24.05
2022-08-14T23:55:27.850Z,23.81
2022-08-14T23:57:57.874Z,23.74
